createdAt,value
2019-01-05T00:01:15.677Z,101241.75
2019-01-05T00:03:45.662Z,101236.45
2019-01-05T00:06:14.707Z,101240.66
2019-01-05T00:08:44.575Z,101235.88
2019-01-05T00:11:14.421Z,101240.76
2019-01-05T00:13:46.419Z,101234.31
2019-01-05T00:16:15.472Z,101231.47
2019-01-05T00:18:50.296Z,101229.28
2019-01-05T00:21:25.205Z,101229.96
2019-01-05T00:23:59.838Z,101224.83
2019-01-05T00:26:29.679Z,101222.20
2019-01-05T00:29:00.564Z,101221.16
2019-01-05T00:31:30.428Z,101226.17
2019-01-05T00:33:59.475Z,101227.77
2019-01-05T00:36:29.636Z,101224.52
2019-01-05T00:39:00.615Z,101221.45
2019-01-05T00:41:30.596Z,101211.42
2019-01-05T00:44:00.462Z,101218.80
2019-01-05T00:46:29.487Z,101218.02
2019-01-05T00:49:01.405Z,101214.13
2019-01-05T00:51:36.452Z,101212.87
2019-01-05T00:54:05.546Z,101203.73
2019-01-05T00:56:35.537Z,101206.52
2019-01-05T01:01:54.551Z,101199.08
2019-01-05T01:04:26.594Z,101193.78
2019-01-05T01:06:56.457Z,101192.03
2019-01-05T01:09:25.497Z,101185.50
2019-01-05T01:11:54.602Z,101177.42
2019-01-05T01:14:23.644Z,101183.09
2019-01-05T01:16:55.610Z,101179.01
2019-01-05T01:19:26.636Z,101191.56
2019-01-05T01:21:57.562Z,101190.53
2019-01-05T01:27:15.835Z,101182.98
2019-01-05T01:29:44.884Z,101182.28
2019-01-05T01:32:19.963Z,101179.95
2019-01-05T01:34:54.619Z,101172.58
2019-01-05T01:37:23.689Z,101170.94
2019-01-05T01:39:53.546Z,101164.56
2019-01-05T01:42:23.511Z,101168.10
2019-01-05T01:44:52.604Z,101172.80
2019-01-05T01:47:24.384Z,101169.55
2019-01-05T01:49:59.083Z,101169.38
2019-01-05T01:52:28.135Z,101175.23
2019-01-05T01:55:00.979Z,101166.72
2019-01-05T01:57:31.846Z,101169.55
2019-01-05T02:00:01.990Z,101173.64
2019-01-05T02:02:35.896Z,101170.66
2019-01-05T02:05:06.884Z,101172.46
2019-01-05T02:07:36.132Z,101176.13
2019-01-05T02:10:08.027Z,101170.50
2019-01-05T02:12:41.945Z,101171.22
2019-01-05T02:15:12.087Z,101174.80
2019-01-05T02:17:42.917Z,101169.58
2019-01-05T02:20:23.237Z,101173.49
2019-01-05T02:22:59.711Z,101163.97
2019-01-05T02:25:34.493Z,101155.45
2019-01-05T02:28:17.856Z,101168.06
2019-01-05T02:30:48.074Z,101164.07
2019-01-05T02:33:21.980Z,101166.63
2019-01-05T02:36:00.412Z,101155.56
2019-01-05T02:38:51.469Z,101161.39
2019-01-05T02:41:28.028Z,101173.55
2019-01-05T02:44:07.557Z,101166.92
2019-01-05T02:46:48.494Z,101171.58
2019-01-05T02:49:36.335Z,101180.16
2019-01-05T02:52:06.213Z,101180.14
2019-01-05T02:57:23.813Z,101175.65
2019-01-05T03:02:49.010Z,101160.52
2019-01-05T03:08:21.821Z,101153.48
2019-01-05T03:11:02.277Z,101142.56
2019-01-05T03:13:32.820Z,101135.88
2019-01-05T03:16:06.590Z,101129.36
2019-01-05T03:18:55.786Z,101135.35
2019-01-05T03:21:37.485Z,101142.58
2019-01-05T03:27:09.698Z,101124.32
2019-01-05T03:29:44.362Z,101120.75
2019-01-05T03:32:14.230Z,101126.30
2019-01-05T03:34:53.218Z,101117.19
2019-01-05T03:37:30.019Z,101123.84
2019-01-05T03:42:52.933Z,101126.79
2019-01-05T03:45:32.555Z,101128.19
2019-01-05T03:50:53.174Z,101151.42
2019-01-05T03:53:29.380Z,101147.66
2019-01-05T03:56:08.700Z,101160.70
2019-01-05T03:58:43.427Z,101153.06
2019-01-05T04:01:17.102Z,101166.89
2019-01-05T04:03:48.956Z,101158.56
2019-01-05T04:06:25.673Z,101154.53
2019-01-05T04:08:56.511Z,101169.96
2019-01-05T04:11:42.242Z,101164.26
2019-01-05T04:14:18.932Z,101166.03
2019-01-05T04:17:10.317Z,101168.84
2019-01-05T04:19:51.855Z,101174.00
2019-01-05T04:22:28.823Z,101185.08
2019-01-05T04:25:06.445Z,101197.66
2019-01-05T04:27:48.216Z,101184.48
2019-01-05T04:30:22.711Z,101199.01
2019-01-05T04:35:48.509Z,101197.01
2019-01-05T04:38:33.347Z,101198.59
2019-01-05T04:43:51.031Z,101199.60
2019-01-05T04:46:27.514Z,101205.34
2019-01-05T04:49:02.309Z,101198.03
2019-01-05T04:57:10.507Z,101203.32
2019-01-05T04:59:44.513Z,101201.87
2019-01-05T05:02:20.192Z,101210.04
2019-01-05T05:04:50.069Z,101215.10
2019-01-05T05:07:26.543Z,101225.87
2019-01-05T05:10:06.482Z,101219.51
2019-01-05T05:12:48.044Z,101228.42
2019-01-05T05:23:37.755Z,101241.36
2019-01-05T05:26:16.679Z,101244.57
2019-01-05T05:28:53.191Z,101245.05
2019-01-05T05:31:33.535Z,101245.48
2019-01-05T05:40:18.941Z,101258.50
2019-01-05T05:43:06.581Z,101249.88
2019-01-05T05:45:53.325Z,101252.09
2019-01-05T05:48:30.543Z,101257.47
2019-01-05T05:51:10.182Z,101261.95
2019-01-05T05:53:46.983Z,101268.95
2019-01-05T05:56:22.864Z,101267.46
2019-01-05T05:58:57.934Z,101268.45
2019-01-05T06:01:35.282Z,101286.12
2019-01-05T06:04:12.106Z,101287.48
2019-01-05T06:06:46.743Z,101295.80
2019-01-05T06:09:32.107Z,101296.55
2019-01-05T06:12:19.772Z,101306.50
2019-01-05T06:14:52.571Z,101311.34
2019-01-05T06:17:32.043Z,101313.26
2019-01-05T06:20:01.917Z,101318.72
2019-01-05T06:22:37.491Z,101317.78
2019-01-05T06:28:04.154Z,101333.31
2019-01-05T06:30:39.130Z,101331.88
2019-01-05T06:33:09.828Z,101332.63
2019-01-05T06:35:52.442Z,101341.83
2019-01-05T06:38:33.829Z,101341.81
2019-01-05T06:41:16.128Z,101348.03
2019-01-05T06:43:49.720Z,101350.55
2019-01-05T06:46:37.669Z,101355.09
2019-01-05T06:49:23.045Z,101353.86
2019-01-05T06:52:08.727Z,101364.86
2019-01-05T06:54:52.915Z,101361.14
2019-01-05T06:57:29.296Z,101360.33
2019-01-05T07:00:15.197Z,101366.42
2019-01-05T07:02:56.123Z,101369.04
2019-01-05T07:05:33.883Z,101377.09
2019-01-05T07:10:56.440Z,101373.41
2019-01-05T07:16:14.978Z,101386.78
2019-01-05T07:21:35.853Z,101394.05
2019-01-05T07:24:17.620Z,101394.48
2019-01-05T07:27:01.324Z,101391.77
2019-01-05T07:29:45.831Z,101397.58
2019-01-05T07:35:17.755Z,101398.78
2019-01-05T07:37:54.199Z,101405.99
2019-01-05T07:40:35.717Z,101396.41
2019-01-05T07:43:10.496Z,101399.67
2019-01-05T07:45:46.845Z,101402.50
2019-01-05T07:48:26.548Z,101400.80
2019-01-05T07:51:11.318Z,101406.53
2019-01-05T07:53:53.011Z,101408.75
2019-01-05T07:59:13.332Z,101411.52
2019-01-05T08:02:02.185Z,101411.14
2019-01-05T08:04:41.489Z,101410.06
2019-01-05T08:07:23.231Z,101408.11
2019-01-05T08:10:09.324Z,101413.51
2019-01-05T08:12:56.884Z,101414.20
2019-01-05T08:15:37.538Z,101422.20
2019-01-05T08:18:20.132Z,101413.50
2019-01-05T08:21:06.532Z,101425.42
2019-01-05T08:23:55.445Z,101423.89
2019-01-05T08:26:31.893Z,101428.20
2019-01-05T08:32:00.326Z,101441.36
2019-01-05T08:34:44.889Z,101441.05
2019-01-05T08:37:25.493Z,101440.98
2019-01-05T08:43:02.490Z,101447.64
2019-01-05T08:45:43.401Z,101443.08
2019-01-05T08:48:20.017Z,101442.99
2019-01-05T08:51:09.195Z,101449.53
2019-01-05T08:53:46.974Z,101450.08
2019-01-05T08:56:30.737Z,101458.95
2019-01-05T08:59:13.985Z,101467.18
2019-01-05T09:01:54.498Z,101462.15
2019-01-05T09:07:14.665Z,101468.05
2019-01-05T09:09:50.940Z,101480.08
2019-01-05T09:12:34.202Z,101477.09
2019-01-05T09:15:09.039Z,101478.45
2019-01-05T09:17:44.844Z,101480.87
2019-01-05T09:20:22.443Z,101480.27
2019-01-05T09:23:00.257Z,101484.84
2019-01-05T09:25:36.230Z,101479.27
2019-01-05T09:28:17.812Z,101487.64
2019-01-05T09:33:46.156Z,101477.61
2019-01-05T09:36:23.414Z,101493.23
2019-01-05T09:38:57.169Z,101493.86
2019-01-05T09:41:40.624Z,101491.98
2019-01-05T09:44:17.965Z,101496.80
2019-01-05T09:46:51.883Z,101504.33
2019-01-05T09:49:35.673Z,101502.92
2019-01-05T09:52:16.419Z,101534.30
2019-01-05T09:54:53.984Z,101522.70
2019-01-05T09:57:28.881Z,101539.25
2019-01-05T10:00:05.561Z,101536.72
2019-01-05T10:02:36.460Z,101528.16
2019-01-05T10:05:25.187Z,101532.88
2019-01-05T10:07:59.955Z,101533.09
2019-01-05T10:10:38.182Z,101535.42
2019-01-05T10:13:19.641Z,101525.37
2019-01-05T10:15:54.628Z,101525.98
2019-01-05T10:18:28.545Z,101532.75
2019-01-05T10:26:47.354Z,101544.42
2019-01-05T10:29:25.009Z,101545.20
2019-01-05T10:32:12.874Z,101553.91
2019-01-05T10:34:44.444Z,101547.94
2019-01-05T10:37:22.867Z,101553.77
2019-01-05T10:42:41.168Z,101551.45
2019-01-05T10:45:11.142Z,101551.47
2019-01-05T10:47:46.123Z,101554.38
2019-01-05T10:50:22.878Z,101552.42
2019-01-05T10:53:03.382Z,101549.38
2019-01-05T10:55:44.058Z,101552.55
2019-01-05T10:58:26.455Z,101556.19
2019-01-05T11:01:02.249Z,101558.50
2019-01-05T11:03:39.166Z,101564.08
2019-01-05T11:06:13.933Z,101563.80
2019-01-05T11:08:43.010Z,101572.29
2019-01-05T11:11:20.164Z,101586.70
2019-01-05T11:14:06.938Z,101581.01
2019-01-05T11:16:45.928Z,101594.14
2019-01-05T11:19:16.088Z,101600.27
2019-01-05T11:21:51.769Z,101599.53
2019-01-05T11:24:24.311Z,101598.27
2019-01-05T11:26:59.225Z,101612.33
2019-01-05T11:29:49.745Z,101607.53
2019-01-05T11:32:28.188Z,101598.42
2019-01-05T11:35:05.781Z,101601.62
2019-01-05T11:37:46.332Z,101604.04
2019-01-05T11:43:15.265Z,101593.21
2019-01-05T11:45:48.909Z,101614.59
2019-01-05T11:48:26.721Z,101616.61
2019-01-05T11:53:56.908Z,101635.32
2019-01-05T11:56:37.270Z,101625.02
2019-01-05T12:04:34.644Z,101641.16
2019-01-05T12:07:15.272Z,101641.70
2019-01-05T12:09:51.170Z,101650.10
2019-01-05T12:12:26.079Z,101645.53
2019-01-05T12:14:56.603Z,101649.73
2019-01-05T12:17:34.920Z,101655.62
2019-01-05T12:20:05.720Z,101657.80
2019-01-05T12:22:43.400Z,101656.49
2019-01-05T12:25:17.876Z,101669.91
2019-01-05T12:27:48.446Z,101656.81
2019-01-05T12:30:27.130Z,101682.09
2019-01-05T12:33:15.788Z,101683.05
2019-01-05T12:35:50.725Z,101688.28
2019-01-05T12:38:25.791Z,101697.20
2019-01-05T12:40:58.661Z,101708.28
2019-01-05T12:46:20.525Z,101716.58
2019-01-05T12:51:42.990Z,101723.28
2019-01-05T12:54:19.720Z,101723.06
2019-01-05T12:56:59.205Z,101728.66
2019-01-05T12:59:46.454Z,101729.11
2019-01-05T13:02:31.284Z,101734.33
2019-01-05T13:10:53.155Z,101747.80
2019-01-05T13:13:28.081Z,101745.48
2019-01-05T13:16:12.676Z,101750.19
2019-01-05T13:18:54.540Z,101753.66
2019-01-05T13:21:35.053Z,101755.73
2019-01-05T13:26:53.676Z,101762.03
2019-01-05T13:32:17.001Z,101759.13
2019-01-05T13:34:51.555Z,101766.36
2019-01-05T13:40:13.054Z,101798.61
2019-01-05T13:42:53.664Z,101790.12
2019-01-05T13:45:40.499Z,101789.80
2019-01-05T13:48:26.685Z,101789.14
2019-01-05T13:51:07.252Z,101794.81
2019-01-05T13:53:40.124Z,101801.47
2019-01-05T13:56:10.092Z,101806.71
2019-01-05T13:58:44.140Z,101804.88
2019-01-05T14:01:18.828Z,101806.38
2019-01-05T14:03:53.615Z,101804.06
2019-01-05T14:06:24.467Z,101815.73
2019-01-05T14:08:59.165Z,101822.67
2019-01-05T14:11:28.211Z,101817.72
2019-01-05T14:13:58.041Z,101821.98
2019-01-05T14:16:32.775Z,101822.45
2019-01-05T14:19:07.689Z,101822.08
2019-01-05T14:21:42.764Z,101839.90
2019-01-05T14:24:17.317Z,101836.14
2019-01-05T14:26:47.318Z,101835.71
2019-01-05T14:29:16.345Z,101843.89
2019-01-05T14:31:48.666Z,101832.98
2019-01-05T14:34:21.680Z,101837.06
2019-01-05T14:36:51.541Z,101834.69
2019-01-05T14:39:26.413Z,101844.61
2019-01-05T14:42:00.477Z,101831.13
2019-01-05T14:44:33.447Z,101838.39
2019-01-05T14:47:02.565Z,101831.58
2019-01-05T14:49:37.113Z,101831.23
2019-01-05T14:52:08.147Z,101832.28
2019-01-05T14:54:38.123Z,101835.82
2019-01-05T14:57:07.173Z,101836.17
2019-01-05T14:59:41.931Z,101836.02
2019-01-05T15:02:13.909Z,101826.11
2019-01-05T15:04:43.902Z,101834.27
2019-01-05T15:07:16.958Z,101835.91
2019-01-05T15:09:47.978Z,101844.24
2019-01-05T15:12:22.063Z,101846.84
2019-01-05T15:14:53.060Z,101856.19
2019-01-05T15:17:27.755Z,101855.58
2019-01-05T15:19:56.861Z,101855.70
2019-01-05T15:22:26.768Z,101857.81
2019-01-05T15:25:01.403Z,101856.72
2019-01-05T15:27:36.098Z,101869.52
2019-01-05T15:30:06.978Z,101865.47
2019-01-05T15:32:37.858Z,101866.20
2019-01-05T15:35:06.918Z,101884.19
2019-01-05T15:37:36.003Z,101886.71
2019-01-05T15:40:10.005Z,101891.26
2019-01-05T15:42:39.995Z,101900.59
2019-01-05T15:45:14.681Z,101893.95
2019-01-05T15:47:43.759Z,101900.70
2019-01-05T15:50:12.805Z,101905.19
2019-01-05T15:52:43.678Z,101910.63
2019-01-05T15:55:14.600Z,101903.09
2019-01-05T15:57:43.659Z,101905.13
2019-01-05T16:00:18.210Z,101905.45
2019-01-05T16:02:47.246Z,101911.16
2019-01-05T16:05:16.289Z,101912.09
2019-01-05T16:07:48.196Z,101909.67
2019-01-05T16:10:18.058Z,101907.98
2019-01-05T16:15:36.063Z,101917.09
2019-01-05T16:18:09.943Z,101925.92
2019-01-05T16:20:44.638Z,101931.38
2019-01-05T16:23:13.721Z,101936.77
2019-01-05T16:25:44.695Z,101943.92
2019-01-05T16:28:13.742Z,101939.34
2019-01-05T16:30:48.392Z,101937.32
2019-01-05T16:33:26.511Z,101937.50
2019-01-05T16:35:55.581Z,101930.84
2019-01-05T16:38:24.623Z,101941.45
2019-01-05T16:40:54.601Z,101944.33
2019-01-05T16:43:26.629Z,101950.59
2019-01-05T16:45:57.600Z,101961.55
2019-01-05T16:48:26.685Z,101963.13
2019-01-05T16:50:55.787Z,101957.11
2019-01-05T16:53:32.503Z,101954.63
2019-01-05T16:56:07.070Z,101959.33
2019-01-05T16:58:37.051Z,101960.80
2019-01-05T17:01:06.101Z,101968.71
2019-01-05T17:03:35.990Z,101965.78
2019-01-05T17:06:05.881Z,101974.77
2019-01-05T17:08:34.929Z,101972.53
2019-01-05T17:11:04.031Z,101975.64
2019-01-05T17:13:37.361Z,101971.72
2019-01-05T17:16:06.526Z,101975.05
2019-01-05T17:18:41.573Z,101970.95
2019-01-05T17:21:12.563Z,101972.55
2019-01-05T17:23:47.410Z,101982.16
2019-01-05T17:26:21.412Z,101979.57
2019-01-05T17:28:56.121Z,101976.77
2019-01-05T17:34:10.247Z,101989.37
2019-01-05T17:36:42.119Z,101990.09
2019-01-05T17:39:16.966Z,101995.23
2019-01-05T17:41:46.827Z,101999.80
2019-01-05T17:44:15.908Z,102007.73
2019-01-05T17:46:50.536Z,102006.58
2019-01-05T17:49:20.485Z,102005.89
2019-01-05T17:51:54.515Z,101994.68
2019-01-05T17:54:29.377Z,102010.33
2019-01-05T17:57:03.474Z,102008.02
2019-01-05T18:02:17.933Z,102010.31
2019-01-05T18:04:47.926Z,102006.71
2019-01-05T18:07:20.973Z,102007.48
2019-01-05T18:09:56.075Z,102010.71
2019-01-05T18:12:27.975Z,102004.22
2019-01-05T18:15:02.664Z,102009.19
2019-01-05T18:17:32.548Z,102006.37
2019-01-05T18:20:04.541Z,102011.57
2019-01-05T18:22:33.598Z,102006.19
2019-01-05T18:25:02.663Z,102008.17
2019-01-05T18:27:31.698Z,102007.65
2019-01-05T18:30:01.657Z,102013.75
2019-01-05T18:32:30.706Z,102020.91
2019-01-05T18:35:01.676Z,102014.73
2019-01-05T18:37:31.744Z,102018.94
2019-01-05T18:40:03.406Z,102015.39
2019-01-05T18:42:35.363Z,102014.72
2019-01-05T18:45:10.312Z,102018.11
2019-01-05T18:47:39.398Z,102011.70
2019-01-05T18:50:09.367Z,102014.52
2019-01-05T18:52:43.281Z,102013.41
2019-01-05T18:55:17.968Z,102024.36
2019-01-05T18:57:47.048Z,102028.05
2019-01-05T19:00:21.719Z,102029.33
2019-01-05T19:05:48.392Z,102039.62
2019-01-05T19:08:23.127Z,102043.34
2019-01-05T19:10:57.722Z,102039.13
2019-01-05T19:13:33.481Z,102044.97
2019-01-05T19:16:02.533Z,102047.36
2019-01-05T19:18:31.590Z,102048.20
2019-01-05T19:21:02.639Z,102048.51
2019-01-05T19:23:32.482Z,102051.41
2019-01-05T19:26:02.505Z,102052.84
2019-01-05T19:28:32.513Z,102046.02
2019-01-05T19:33:50.049Z,102059.58
2019-01-05T19:36:24.742Z,102065.84
2019-01-05T19:38:58.566Z,102057.69
2019-01-05T19:41:29.423Z,102057.27
2019-01-05T19:43:58.514Z,102054.56
2019-01-05T19:46:31.471Z,102058.27
2019-01-05T19:49:06.047Z,102058.13
2019-01-05T19:51:36.085Z,102070.09
2019-01-05T19:54:05.132Z,102073.45
2019-01-05T19:56:34.187Z,102086.81
2019-01-05T19:59:08.973Z,102083.36
2019-01-05T20:01:38.039Z,102075.23
2019-01-05T20:04:11.910Z,102069.65
2019-01-05T20:06:42.888Z,102078.13
2019-01-05T20:09:11.932Z,102074.06
2019-01-05T20:11:46.619Z,102080.59
2019-01-05T20:14:21.237Z,102069.14
2019-01-05T20:16:52.279Z,102093.33
2019-01-05T20:19:26.802Z,102088.47
2019-01-05T20:21:56.829Z,102094.08
2019-01-05T20:24:27.685Z,102086.97
2019-01-05T20:29:40.616Z,102096.92
2019-01-05T20:32:15.271Z,102100.34
2019-01-05T20:34:46.208Z,102114.52
2019-01-05T20:37:21.018Z,102113.20
2019-01-05T20:39:50.111Z,102109.01
2019-01-05T20:42:23.040Z,102101.59
2019-01-05T20:44:53.074Z,102094.72
2019-01-05T20:47:27.156Z,102108.80
2019-01-05T20:49:58.186Z,102103.89
2019-01-05T20:52:28.134Z,102104.80
2019-01-05T20:54:59.219Z,102098.63
2019-01-05T20:57:33.133Z,102099.52
2019-01-05T21:00:07.903Z,102106.18
2019-01-05T21:02:42.814Z,102107.70
2019-01-05T21:05:17.687Z,102112.06
2019-01-05T21:07:50.756Z,102114.20
2019-01-05T21:10:19.843Z,102115.53
2019-01-05T21:12:49.752Z,102120.15
2019-01-05T21:15:24.851Z,102124.27
2019-01-05T21:17:52.856Z,102122.48
2019-01-05T21:20:23.849Z,102135.88
2019-01-05T21:22:58.668Z,102137.00
2019-01-05T21:25:33.275Z,102141.84
2019-01-05T21:28:03.197Z,102144.38
2019-01-05T21:30:37.798Z,102152.83
2019-01-05T21:36:05.083Z,102147.46
2019-01-05T21:38:39.188Z,102148.56
2019-01-05T21:41:13.763Z,102150.55
2019-01-05T21:43:44.814Z,102163.88
2019-01-05T21:46:13.923Z,102160.48
2019-01-05T21:48:48.440Z,102160.92
2019-01-05T21:51:19.977Z,102160.59
2019-01-05T21:56:33.142Z,102153.59
2019-01-05T21:59:04.079Z,102155.84
2019-01-05T22:01:34.028Z,102151.91
2019-01-05T22:04:03.081Z,102155.97
2019-01-05T22:06:33.022Z,102158.41
2019-01-05T22:09:02.056Z,102170.23
2019-01-05T22:11:33.054Z,102180.98
2019-01-05T22:14:06.152Z,102175.44
2019-01-05T22:16:38.014Z,102175.87
2019-01-05T22:19:10.957Z,102178.25
2019-01-05T22:21:42.819Z,102175.75
2019-01-05T22:24:13.859Z,102187.42
2019-01-05T22:26:42.908Z,102179.86
2019-01-05T22:29:17.947Z,102191.48
2019-01-05T22:31:52.429Z,102188.75
2019-01-05T22:34:42.609Z,102194.90
2019-01-05T22:37:11.635Z,102199.95
2019-01-05T22:39:46.326Z,102203.14
2019-01-05T22:42:16.107Z,102200.91
2019-01-05T22:44:48.214Z,102201.85
2019-01-05T22:47:17.259Z,102203.75
2019-01-05T22:49:46.302Z,102201.02
2019-01-05T22:52:17.328Z,102215.52
2019-01-05T22:54:51.855Z,102214.77
2019-01-05T22:57:23.735Z,102220.27
2019-01-05T22:59:52.782Z,102228.25
2019-01-05T23:02:26.938Z,102218.72
2019-01-05T23:04:55.988Z,102223.17
2019-01-05T23:07:26.891Z,102220.62
2019-01-05T23:09:59.876Z,102207.38
2019-01-05T23:12:31.880Z,102208.20
2019-01-05T23:15:00.953Z,102210.92
2019-01-05T23:17:31.737Z,102216.53
2019-01-05T23:20:06.351Z,102219.92
2019-01-05T23:22:37.221Z,102234.36
2019-01-05T23:25:07.106Z,102226.70
2019-01-05T23:27:38.946Z,102237.00
2019-01-05T23:30:09.847Z,102216.62
2019-01-05T23:32:38.874Z,102219.50
2019-01-05T23:35:08.840Z,102227.66
2019-01-05T23:37:42.915Z,102230.94
2019-01-05T23:40:17.529Z,102229.21
2019-01-05T23:42:52.054Z,102229.84
2019-01-05T23:45:27.469Z,102236.73
2019-01-05T23:47:57.469Z,102242.22
2019-01-05T23:50:28.463Z,102239.82
2019-01-05T23:53:00.561Z,102236.41
2019-01-05T23:55:29.598Z,102239.80
2019-01-05T23:58:00.360Z,102246.63
